sensor_id;sensor_type;location;lat;lon;timestamp;P1;durP1;ratioP1;P2;durP2;ratioP2
8861;SDS011;4799;50.996;4.754;2023-06-26T00:01:18;5.97;;;5.37;;
8861;SDS011;4799;50.996;4.754;2023-06-26T00:03:47;5.70;;;5.17;;
8861;SDS011;4799;50.996;4.754;2023-06-26T00:06:13;5.50;;;5.00;;
8861;SDS011;4799;50.996;4.754;2023-06-26T00:08:39;5.20;;;4.70;;
8861;SDS011;4799;50.996;4.754;2023-06-26T00:11:05;5.40;;;4.90;;
8861;SDS011;4799;50.996;4.754;2023-06-26T00:13:31;5.27;;;4.87;;
8861;SDS011;4799;50.996;4.754;2023-06-26T00:15:57;6.40;;;5.03;;
8861;SDS011;4799;50.996;4.754;2023-06-26T00:18:22;5.40;;;4.90;;
8861;SDS011;4799;50.996;4.754;2023-06-26T00:20:48;6.47;;;5.23;;
8861;SDS011;4799;50.996;4.754;2023-06-26T00:23:16;5.17;;;4.67;;
8861;SDS011;4799;50.996;4.754;2023-06-26T00:25:43;5.57;;;5.03;;
8861;SDS011;4799;50.996;4.754;2023-06-26T00:28:09;5.23;;;4.60;;
8861;SDS011;4799;50.996;4.754;2023-06-26T00:30:34;5.63;;;5.13;;
8861;SDS011;4799;50.996;4.754;2023-06-26T00:33:00;5.37;;;4.60;;
8861;SDS011;4799;50.996;4.754;2023-06-26T00:35:26;7.07;;;5.07;;
8861;SDS011;4799;50.996;4.754;2023-06-26T00:37:52;5.00;;;4.50;;
8861;SDS011;4799;50.996;4.754;2023-06-26T00:40:18;6.40;;;4.57;;
8861;SDS011;4799;50.996;4.754;2023-06-26T00:42:43;5.33;;;4.83;;
8861;SDS011;4799;50.996;4.754;2023-06-26T00:45:09;5.17;;;4.70;;
8861;SDS011;4799;50.996;4.754;2023-06-26T00:47:35;5.27;;;4.77;;
8861;SDS011;4799;50.996;4.754;2023-06-26T00:50:02;5.33;;;4.77;;
8861;SDS011;4799;50.996;4.754;2023-06-26T00:52:28;5.37;;;4.87;;
8861;SDS011;4799;50.996;4.754;2023-06-26T00:54:54;4.93;;;4.53;;
8861;SDS011;4799;50.996;4.754;2023-06-26T00:57:20;6.07;;;5.00;;
8861;SDS011;4799;50.996;4.754;2023-06-26T00:59:46;5.40;;;4.70;;
8861;SDS011;4799;50.996;4.754;2023-06-26T01:02:13;4.63;;;4.30;;
8861;SDS011;4799;50.996;4.754;2023-06-26T01:04:42;5.67;;;5.00;;
8861;SDS011;4799;50.996;4.754;2023-06-26T01:07:12;5.07;;;4.63;;
8861;SDS011;4799;50.996;4.754;2023-06-26T01:09:39;5.17;;;4.67;;
8861;SDS011;4799;50.996;4.754;2023-06-26T01:12:05;6.87;;;4.57;;
8861;SDS011;4799;50.996;4.754;2023-06-26T01:14:31;5.37;;;4.87;;
8861;SDS011;4799;50.996;4.754;2023-06-26T01:16:59;5.10;;;4.70;;
8861;SDS011;4799;50.996;4.754;2023-06-26T01:19:27;5.80;;;4.93;;
8861;SDS011;4799;50.996;4.754;2023-06-26T01:22:19;5.67;;;4.80;;
8861;SDS011;4799;50.996;4.754;2023-06-26T01:25:15;5.63;;;4.97;;
8861;SDS011;4799;50.996;4.754;2023-06-26T01:28:07;5.17;;;4.67;;
8861;SDS011;4799;50.996;4.754;2023-06-26T01:30:34;5.20;;;4.70;;
8861;SDS011;4799;50.996;4.754;2023-06-26T01:33:03;6.43;;;4.70;;
8861;SDS011;4799;50.996;4.754;2023-06-26T01:35:29;5.13;;;4.40;;
8861;SDS011;4799;50.996;4.754;2023-06-26T01:40:57;4.87;;;4.40;;
8861;SDS011;4799;50.996;4.754;2023-06-26T01:46:21;5.33;;;4.07;;
8861;SDS011;4799;50.996;4.754;2023-06-26T01:49:04;4.53;;;4.10;;
8861;SDS011;4799;50.996;4.754;2023-06-26T01:51:42;5.03;;;4.10;;
8861;SDS011;4799;50.996;4.754;2023-06-26T01:54:14;4.80;;;4.20;;
8861;SDS011;4799;50.996;4.754;2023-06-26T01:56:43;4.63;;;4.20;;
8861;SDS011;4799;50.996;4.754;2023-06-26T01:59:11;4.83;;;4.10;;
8861;SDS011;4799;50.996;4.754;2023-06-26T02:01:41;5.63;;;4.17;;
8861;SDS011;4799;50.996;4.754;2023-06-26T02:04:06;5.40;;;3.70;;
8861;SDS011;4799;50.996;4.754;2023-06-26T02:06:32;5.70;;;3.87;;
8861;SDS011;4799;50.996;4.754;2023-06-26T02:08:58;5.53;;;4.10;;
8861;SDS011;4799;50.996;4.754;2023-06-26T02:11:23;4.60;;;4.20;;
8861;SDS011;4799;50.996;4.754;2023-06-26T02:13:49;4.93;;;3.83;;
8861;SDS011;4799;50.996;4.754;2023-06-26T02:16:15;5.47;;;4.03;;
8861;SDS011;4799;50.996;4.754;2023-06-26T02:18:40;4.60;;;3.90;;
8861;SDS011;4799;50.996;4.754;2023-06-26T02:21:06;7.70;;;4.30;;
8861;SDS011;4799;50.996;4.754;2023-06-26T02:23:32;4.57;;;3.60;;
8861;SDS011;4799;50.996;4.754;2023-06-26T02:25:58;5.90;;;3.93;;
8861;SDS011;4799;50.996;4.754;2023-06-26T02:28:24;4.70;;;4.20;;
8861;SDS011;4799;50.996;4.754;2023-06-26T02:30:50;4.83;;;4.20;;
8861;SDS011;4799;50.996;4.754;2023-06-26T02:33:15;4.57;;;3.80;;
8861;SDS011;4799;50.996;4.754;2023-06-26T02:35:41;4.63;;;4.10;;
8861;SDS011;4799;50.996;4.754;2023-06-26T02:38:07;5.70;;;4.30;;
8861;SDS011;4799;50.996;4.754;2023-06-26T02:40:33;6.17;;;4.03;;
8861;SDS011;4799;50.996;4.754;2023-06-26T02:42:59;4.33;;;3.80;;
8861;SDS011;4799;50.996;4.754;2023-06-26T02:45:24;6.00;;;4.03;;
8861;SDS011;4799;50.996;4.754;2023-06-26T02:47:50;6.47;;;4.30;;
8861;SDS011;4799;50.996;4.754;2023-06-26T02:50:16;5.97;;;4.00;;
8861;SDS011;4799;50.996;4.754;2023-06-26T02:52:41;6.23;;;4.17;;
8861;SDS011;4799;50.996;4.754;2023-06-26T02:55:07;4.77;;;4.03;;
8861;SDS011;4799;50.996;4.754;2023-06-26T02:57:33;5.97;;;4.33;;
8861;SDS011;4799;50.996;4.754;2023-06-26T02:59:59;6.77;;;4.07;;
8861;SDS011;4799;50.996;4.754;2023-06-26T03:02:24;6.27;;;4.40;;
8861;SDS011;4799;50.996;4.754;2023-06-26T03:04:50;4.50;;;4.10;;
8861;SDS011;4799;50.996;4.754;2023-06-26T03:07:17;8.57;;;4.30;;
8861;SDS011;4799;50.996;4.754;2023-06-26T03:09:43;6.20;;;4.10;;
8861;SDS011;4799;50.996;4.754;2023-06-26T03:12:09;7.63;;;4.40;;
8861;SDS011;4799;50.996;4.754;2023-06-26T03:14:34;7.93;;;4.40;;
8861;SDS011;4799;50.996;4.754;2023-06-26T03:17:00;6.40;;;4.03;;
8861;SDS011;4799;50.996;4.754;2023-06-26T03:19:28;6.50;;;4.00;;
8861;SDS011;4799;50.996;4.754;2023-06-26T03:21:54;7.83;;;3.90;;
8861;SDS011;4799;50.996;4.754;2023-06-26T03:24:20;6.30;;;4.30;;
8861;SDS011;4799;50.996;4.754;2023-06-26T03:26:46;5.43;;;4.07;;
8861;SDS011;4799;50.996;4.754;2023-06-26T03:29:11;7.53;;;4.23;;
8861;SDS011;4799;50.996;4.754;2023-06-26T03:31:37;6.53;;;4.50;;
8861;SDS011;4799;50.996;4.754;2023-06-26T03:34:03;7.00;;;4.37;;
8861;SDS011;4799;50.996;4.754;2023-06-26T03:36:29;7.07;;;4.03;;
8861;SDS011;4799;50.996;4.754;2023-06-26T03:38:54;7.07;;;4.37;;
8861;SDS011;4799;50.996;4.754;2023-06-26T03:41:22;5.17;;;4.10;;
8861;SDS011;4799;50.996;4.754;2023-06-26T03:43:48;6.57;;;4.50;;
8861;SDS011;4799;50.996;4.754;2023-06-26T03:46:14;7.00;;;4.60;;
8861;SDS011;4799;50.996;4.754;2023-06-26T03:48:40;5.83;;;4.50;;
8861;SDS011;4799;50.996;4.754;2023-06-26T03:51:06;6.23;;;4.33;;
8861;SDS011;4799;50.996;4.754;2023-06-26T03:53:32;7.60;;;4.30;;
8861;SDS011;4799;50.996;4.754;2023-06-26T03:55:58;7.50;;;4.47;;
8861;SDS011;4799;50.996;4.754;2023-06-26T03:58:24;7.60;;;4.60;;
8861;SDS011;4799;50.996;4.754;2023-06-26T04:00:50;8.17;;;5.00;;
8861;SDS011;4799;50.996;4.754;2023-06-26T04:03:16;8.00;;;4.33;;
8861;SDS011;4799;50.996;4.754;2023-06-26T04:05:42;9.40;;;5.10;;
8861;SDS011;4799;50.996;4.754;2023-06-26T04:08:08;7.30;;;4.80;;
8861;SDS011;4799;50.996;4.754;2023-06-26T04:10:34;8.00;;;4.87;;
8861;SDS011;4799;50.996;4.754;2023-06-26T04:13:01;10.57;;;5.17;;
8861;SDS011;4799;50.996;4.754;2023-06-26T04:15:27;9.47;;;5.13;;
8861;SDS011;4799;50.996;4.754;2023-06-26T04:17:53;8.90;;;5.00;;
8861;SDS011;4799;50.996;4.754;2023-06-26T04:20:19;10.40;;;5.50;;
8861;SDS011;4799;50.996;4.754;2023-06-26T04:22:44;9.93;;;5.27;;
8861;SDS011;4799;50.996;4.754;2023-06-26T04:25:10;10.87;;;4.90;;
8861;SDS011;4799;50.996;4.754;2023-06-26T04:27:39;8.33;;;4.53;;
8861;SDS011;4799;50.996;4.754;2023-06-26T04:30:05;9.90;;;4.67;;
8861;SDS011;4799;50.996;4.754;2023-06-26T04:32:31;9.80;;;5.40;;
8861;SDS011;4799;50.996;4.754;2023-06-26T04:34:57;7.63;;;4.60;;
8861;SDS011;4799;50.996;4.754;2023-06-26T04:37:22;8.43;;;5.00;;
8861;SDS011;4799;50.996;4.754;2023-06-26T04:39:49;7.73;;;4.77;;
8861;SDS011;4799;50.996;4.754;2023-06-26T04:42:15;9.27;;;5.00;;
8861;SDS011;4799;50.996;4.754;2023-06-26T04:44:41;11.17;;;4.70;;
8861;SDS011;4799;50.996;4.754;2023-06-26T04:47:07;7.90;;;4.40;;
8861;SDS011;4799;50.996;4.754;2023-06-26T04:49:34;11.77;;;4.80;;
8861;SDS011;4799;50.996;4.754;2023-06-26T04:51:59;8.53;;;4.77;;
8861;SDS011;4799;50.996;4.754;2023-06-26T04:54:26;9.53;;;4.90;;
8861;SDS011;4799;50.996;4.754;2023-06-26T04:56:53;10.53;;;4.67;;
8861;SDS011;4799;50.996;4.754;2023-06-26T04:59:19;8.53;;;4.07;;
8861;SDS011;4799;50.996;4.754;2023-06-26T05:01:44;10.07;;;4.83;;
8861;SDS011;4799;50.996;4.754;2023-06-26T05:04:13;8.67;;;4.43;;
8861;SDS011;4799;50.996;4.754;2023-06-26T05:06:40;9.03;;;4.80;;
8861;SDS011;4799;50.996;4.754;2023-06-26T05:09:06;7.03;;;4.50;;
8861;SDS011;4799;50.996;4.754;2023-06-26T05:11:32;10.53;;;4.43;;
8861;SDS011;4799;50.996;4.754;2023-06-26T05:13:58;8.67;;;4.43;;
8861;SDS011;4799;50.996;4.754;2023-06-26T05:16:23;9.10;;;4.90;;
8861;SDS011;4799;50.996;4.754;2023-06-26T05:18:49;9.00;;;4.63;;
8861;SDS011;4799;50.996;4.754;2023-06-26T05:21:15;10.53;;;4.40;;
8861;SDS011;4799;50.996;4.754;2023-06-26T05:23:41;9.27;;;4.93;;
8861;SDS011;4799;50.996;4.754;2023-06-26T05:26:09;12.27;;;5.13;;
8861;SDS011;4799;50.996;4.754;2023-06-26T05:28:36;10.97;;;4.43;;
8861;SDS011;4799;50.996;4.754;2023-06-26T05:31:03;10.97;;;4.63;;
8861;SDS011;4799;50.996;4.754;2023-06-26T05:33:30;10.80;;;5.20;;
8861;SDS011;4799;50.996;4.754;2023-06-26T05:35:56;10.90;;;4.53;;
8861;SDS011;4799;50.996;4.754;2023-06-26T05:38:24;10.27;;;4.30;;
8861;SDS011;4799;50.996;4.754;2023-06-26T05:40:50;8.67;;;4.33;;
8861;SDS011;4799;50.996;4.754;2023-06-26T05:43:16;10.43;;;4.67;;
8861;SDS011;4799;50.996;4.754;2023-06-26T05:45:46;9.90;;;4.40;;
8861;SDS011;4799;50.996;4.754;2023-06-26T05:48:13;10.87;;;4.43;;
8861;SDS011;4799;50.996;4.754;2023-06-26T05:50:39;10.77;;;4.50;;
8861;SDS011;4799;50.996;4.754;2023-06-26T05:53:07;10.10;;;4.37;;
8861;SDS011;4799;50.996;4.754;2023-06-26T05:55:33;9.40;;;3.83;;
8861;SDS011;4799;50.996;4.754;2023-06-26T05:58:00;11.17;;;4.20;;
8861;SDS011;4799;50.996;4.754;2023-06-26T06:00:27;7.43;;;3.80;;
8861;SDS011;4799;50.996;4.754;2023-06-26T06:02:53;11.83;;;4.20;;
8861;SDS011;4799;50.996;4.754;2023-06-26T06:05:20;9.00;;;3.97;;
8861;SDS011;4799;50.996;4.754;2023-06-26T06:07:47;10.27;;;4.27;;
8861;SDS011;4799;50.996;4.754;2023-06-26T06:10:13;8.70;;;3.90;;
8861;SDS011;4799;50.996;4.754;2023-06-26T06:12:38;7.67;;;3.90;;
8861;SDS011;4799;50.996;4.754;2023-06-26T06:15:05;8.67;;;4.10;;
8861;SDS011;4799;50.996;4.754;2023-06-26T06:17:31;9.23;;;3.90;;
8861;SDS011;4799;50.996;4.754;2023-06-26T06:19:58;7.73;;;4.07;;
8861;SDS011;4799;50.996;4.754;2023-06-26T06:22:24;9.27;;;3.83;;
8861;SDS011;4799;50.996;4.754;2023-06-26T06:24:50;10.43;;;3.80;;
8861;SDS011;4799;50.996;4.754;2023-06-26T06:27:16;8.80;;;3.73;;
8861;SDS011;4799;50.996;4.754;2023-06-26T06:29:42;7.63;;;3.80;;
8861;SDS011;4799;50.996;4.754;2023-06-26T06:32:08;7.80;;;3.60;;
8861;SDS011;4799;50.996;4.754;2023-06-26T06:34:34;6.93;;;3.47;;
8861;SDS011;4799;50.996;4.754;2023-06-26T06:36:59;7.47;;;3.63;;
8861;SDS011;4799;50.996;4.754;2023-06-26T06:39:25;9.43;;;3.67;;
8861;SDS011;4799;50.996;4.754;2023-06-26T06:41:51;9.10;;;3.80;;
8861;SDS011;4799;50.996;4.754;2023-06-26T06:44:17;8.80;;;3.63;;
8861;SDS011;4799;50.996;4.754;2023-06-26T06:46:42;9.53;;;3.00;;
8861;SDS011;4799;50.996;4.754;2023-06-26T06:49:08;11.17;;;3.40;;
8861;SDS011;4799;50.996;4.754;2023-06-26T06:51:34;8.07;;;3.70;;
8861;SDS011;4799;50.996;4.754;2023-06-26T06:54:00;7.50;;;3.07;;
8861;SDS011;4799;50.996;4.754;2023-06-26T06:56:26;7.00;;;3.53;;
8861;SDS011;4799;50.996;4.754;2023-06-26T06:58:52;6.63;;;3.30;;
8861;SDS011;4799;50.996;4.754;2023-06-26T07:01:17;7.53;;;3.40;;
8861;SDS011;4799;50.996;4.754;2023-06-26T07:03:43;7.37;;;3.20;;
8861;SDS011;4799;50.996;4.754;2023-06-26T07:06:09;6.87;;;3.30;;
8861;SDS011;4799;50.996;4.754;2023-06-26T07:08:34;8.27;;;2.87;;
8861;SDS011;4799;50.996;4.754;2023-06-26T07:11:00;7.33;;;2.90;;
8861;SDS011;4799;50.996;4.754;2023-06-26T07:13:26;6.00;;;3.10;;
8861;SDS011;4799;50.996;4.754;2023-06-26T07:15:52;10.00;;;3.40;;
8861;SDS011;4799;50.996;4.754;2023-06-26T07:18:18;7.47;;;2.77;;
8861;SDS011;4799;50.996;4.754;2023-06-26T07:20:43;7.50;;;2.97;;
8861;SDS011;4799;50.996;4.754;2023-06-26T07:23:09;8.13;;;2.87;;
8861;SDS011;4799;50.996;4.754;2023-06-26T07:25:35;6.20;;;3.00;;
8861;SDS011;4799;50.996;4.754;2023-06-26T07:28:01;10.33;;;3.00;;
8861;SDS011;4799;50.996;4.754;2023-06-26T07:30:27;6.93;;;2.77;;
8861;SDS011;4799;50.996;4.754;2023-06-26T07:32:52;5.93;;;2.80;;
8861;SDS011;4799;50.996;4.754;2023-06-26T07:35:18;6.43;;;2.80;;
8861;SDS011;4799;50.996;4.754;2023-06-26T07:37:44;7.10;;;2.80;;
8861;SDS011;4799;50.996;4.754;2023-06-26T07:40:10;7.30;;;2.63;;
8861;SDS011;4799;50.996;4.754;2023-06-26T07:42:36;7.63;;;2.97;;
8861;SDS011;4799;50.996;4.754;2023-06-26T07:45:02;6.07;;;3.07;;
8861;SDS011;4799;50.996;4.754;2023-06-26T07:47:35;7.97;;;2.63;;
8861;SDS011;4799;50.996;4.754;2023-06-26T07:50:01;7.13;;;3.10;;
8861;SDS011;4799;50.996;4.754;2023-06-26T07:52:27;6.60;;;2.50;;
8861;SDS011;4799;50.996;4.754;2023-06-26T07:54:53;5.73;;;2.40;;
8861;SDS011;4799;50.996;4.754;2023-06-26T07:57:18;6.50;;;2.43;;
8861;SDS011;4799;50.996;4.754;2023-06-26T07:59:44;5.63;;;2.73;;
8861;SDS011;4799;50.996;4.754;2023-06-26T08:02:10;7.07;;;2.50;;
8861;SDS011;4799;50.996;4.754;2023-06-26T08:04:35;5.07;;;2.07;;
8861;SDS011;4799;50.996;4.754;2023-06-26T08:07:01;5.23;;;2.30;;
8861;SDS011;4799;50.996;4.754;2023-06-26T08:09:29;5.70;;;2.67;;
8861;SDS011;4799;50.996;4.754;2023-06-26T08:11:55;5.50;;;2.23;;
8861;SDS011;4799;50.996;4.754;2023-06-26T08:14:21;6.70;;;2.60;;
8861;SDS011;4799;50.996;4.754;2023-06-26T08:16:48;5.10;;;2.40;;
8861;SDS011;4799;50.996;4.754;2023-06-26T08:19:14;8.57;;;2.40;;
8861;SDS011;4799;50.996;4.754;2023-06-26T08:21:41;6.87;;;2.23;;
8861;SDS011;4799;50.996;4.754;2023-06-26T08:24:07;5.63;;;2.70;;
8861;SDS011;4799;50.996;4.754;2023-06-26T08:26:33;6.13;;;2.47;;
8861;SDS011;4799;50.996;4.754;2023-06-26T08:28:59;8.03;;;2.43;;
8861;SDS011;4799;50.996;4.754;2023-06-26T08:31:25;6.70;;;2.60;;
8861;SDS011;4799;50.996;4.754;2023-06-26T08:33:51;7.63;;;2.50;;
8861;SDS011;4799;50.996;4.754;2023-06-26T08:36:16;5.53;;;2.40;;
8861;SDS011;4799;50.996;4.754;2023-06-26T08:38:42;7.53;;;2.20;;
8861;SDS011;4799;50.996;4.754;2023-06-26T08:41:08;4.23;;;2.20;;
8861;SDS011;4799;50.996;4.754;2023-06-26T08:43:35;5.70;;;2.20;;
8861;SDS011;4799;50.996;4.754;2023-06-26T08:46:01;6.00;;;2.10;;
8861;SDS011;4799;50.996;4.754;2023-06-26T08:48:32;6.17;;;1.93;;
8861;SDS011;4799;50.996;4.754;2023-06-26T08:51:05;3.20;;;1.70;;
8861;SDS011;4799;50.996;4.754;2023-06-26T08:53:40;5.43;;;2.00;;
8861;SDS011;4799;50.996;4.754;2023-06-26T08:56:14;5.87;;;1.80;;
8861;SDS011;4799;50.996;4.754;2023-06-26T08:58:42;4.40;;;1.70;;
8861;SDS011;4799;50.996;4.754;2023-06-26T09:01:09;3.90;;;1.70;;
8861;SDS011;4799;50.996;4.754;2023-06-26T09:03:35;4.30;;;1.97;;
8861;SDS011;4799;50.996;4.754;2023-06-26T09:06:02;5.27;;;1.77;;
8861;SDS011;4799;50.996;4.754;2023-06-26T09:08:27;5.40;;;1.90;;
8861;SDS011;4799;50.996;4.754;2023-06-26T09:10:53;4.77;;;1.70;;
8861;SDS011;4799;50.996;4.754;2023-06-26T09:13:19;4.37;;;1.70;;
8861;SDS011;4799;50.996;4.754;2023-06-26T09:15:46;4.40;;;1.90;;
8861;SDS011;4799;50.996;4.754;2023-06-26T09:18:12;3.70;;;2.00;;
8861;SDS011;4799;50.996;4.754;2023-06-26T09:20:38;3.13;;;1.60;;
8861;SDS011;4799;50.996;4.754;2023-06-26T09:23:04;2.83;;;1.60;;
8861;SDS011;4799;50.996;4.754;2023-06-26T09:25:30;5.20;;;1.70;;
8861;SDS011;4799;50.996;4.754;2023-06-26T09:27:56;6.57;;;2.13;;
8861;SDS011;4799;50.996;4.754;2023-06-26T09:30:22;4.50;;;1.90;;
8861;SDS011;4799;50.996;4.754;2023-06-26T09:32:48;5.87;;;1.80;;
8861;SDS011;4799;50.996;4.754;2023-06-26T09:35:19;3.90;;;1.70;;
8861;SDS011;4799;50.996;4.754;2023-06-26T09:37:45;5.20;;;1.80;;
8861;SDS011;4799;50.996;4.754;2023-06-26T09:40:11;3.70;;;1.57;;
8861;SDS011;4799;50.996;4.754;2023-06-26T09:42:38;2.43;;;1.60;;
8861;SDS011;4799;50.996;4.754;2023-06-26T09:45:04;6.13;;;1.80;;
8861;SDS011;4799;50.996;4.754;2023-06-26T09:47:31;5.73;;;1.97;;
8861;SDS011;4799;50.996;4.754;2023-06-26T09:49:58;4.07;;;1.73;;
8861;SDS011;4799;50.996;4.754;2023-06-26T09:52:25;4.10;;;2.10;;
8861;SDS011;4799;50.996;4.754;2023-06-26T09:55:07;4.57;;;1.83;;
8861;SDS011;4799;50.996;4.754;2023-06-26T09:57:34;3.30;;;1.70;;
8861;SDS011;4799;50.996;4.754;2023-06-26T10:00:00;4.63;;;1.70;;
8861;SDS011;4799;50.996;4.754;2023-06-26T10:02:27;3.60;;;1.70;;
8861;SDS011;4799;50.996;4.754;2023-06-26T10:04:53;3.77;;;1.50;;
8861;SDS011;4799;50.996;4.754;2023-06-26T10:07:19;2.37;;;1.53;;
8861;SDS011;4799;50.996;4.754;2023-06-26T10:09:47;2.67;;;1.60;;
8861;SDS011;4799;50.996;4.754;2023-06-26T10:12:31;3.00;;;1.60;;
8861;SDS011;4799;50.996;4.754;2023-06-26T10:14:58;5.80;;;1.60;;
8861;SDS011;4799;50.996;4.754;2023-06-26T10:17:30;2.80;;;1.47;;
8861;SDS011;4799;50.996;4.754;2023-06-26T10:20:00;2.87;;;1.60;;
8861;SDS011;4799;50.996;4.754;2023-06-26T10:22:29;4.23;;;1.50;;
8861;SDS011;4799;50.996;4.754;2023-06-26T10:24:58;3.10;;;1.50;;
8861;SDS011;4799;50.996;4.754;2023-06-26T10:27:27;4.87;;;1.70;;
8861;SDS011;4799;50.996;4.754;2023-06-26T10:29:58;4.33;;;1.80;;
8861;SDS011;4799;50.996;4.754;2023-06-26T10:32:28;3.20;;;1.60;;
8861;SDS011;4799;50.996;4.754;2023-06-26T10:34:55;5.77;;;1.97;;
8861;SDS011;4799;50.996;4.754;2023-06-26T10:37:21;4.73;;;1.77;;
8861;SDS011;4799;50.996;4.754;2023-06-26T10:40:09;2.67;;;1.70;;
8861;SDS011;4799;50.996;4.754;2023-06-26T10:42:38;2.20;;;1.70;;
8861;SDS011;4799;50.996;4.754;2023-06-26T10:45:14;3.33;;;1.40;;
8861;SDS011;4799;50.996;4.754;2023-06-26T10:47:41;4.23;;;1.63;;
8861;SDS011;4799;50.996;4.754;2023-06-26T10:50:20;4.77;;;1.70;;
8861;SDS011;4799;50.996;4.754;2023-06-26T10:53:32;4.70;;;1.80;;
8861;SDS011;4799;50.996;4.754;2023-06-26T10:56:00;2.53;;;1.60;;
8861;SDS011;4799;50.996;4.754;2023-06-26T11:03:41;4.33;;;1.80;;
8861;SDS011;4799;50.996;4.754;2023-06-26T11:06:09;5.03;;;1.90;;
8861;SDS011;4799;50.996;4.754;2023-06-26T11:08:49;3.57;;;1.60;;
8861;SDS011;4799;50.996;4.754;2023-06-26T11:11:19;4.07;;;1.70;;
8861;SDS011;4799;50.996;4.754;2023-06-26T11:14:05;3.57;;;1.50;;
8861;SDS011;4799;50.996;4.754;2023-06-26T11:16:32;2.47;;;1.57;;
8861;SDS011;4799;50.996;4.754;2023-06-26T11:18:59;3.93;;;1.70;;
8861;SDS011;4799;50.996;4.754;2023-06-26T11:21:25;4.73;;;1.57;;
8861;SDS011;4799;50.996;4.754;2023-06-26T11:23:52;3.70;;;1.60;;
8861;SDS011;4799;50.996;4.754;2023-06-26T11:26:23;4.70;;;1.77;;
8861;SDS011;4799;50.996;4.754;2023-06-26T11:28:54;4.17;;;1.57;;
8861;SDS011;4799;50.996;4.754;2023-06-26T11:31:30;2.30;;;1.43;;
8861;SDS011;4799;50.996;4.754;2023-06-26T11:34:00;3.87;;;1.67;;
8861;SDS011;4799;50.996;4.754;2023-06-26T11:36:28;4.60;;;1.80;;
8861;SDS011;4799;50.996;4.754;2023-06-26T11:38:58;3.40;;;1.53;;
8861;SDS011;4799;50.996;4.754;2023-06-26T11:41:29;3.60;;;1.77;;
8861;SDS011;4799;50.996;4.754;2023-06-26T11:43:56;4.45;;;1.85;;
8861;SDS011;4799;50.996;4.754;2023-06-26T11:46:30;5.28;;;1.80;;
8861;SDS011;4799;50.996;4.754;2023-06-26T11:48:56;2.28;;;1.40;;
8861;SDS011;4799;50.996;4.754;2023-06-26T11:51:22;3.83;;;1.60;;
8861;SDS011;4799;50.996;4.754;2023-06-26T11:53:48;4.15;;;1.80;;
8861;SDS011;4799;50.996;4.754;2023-06-26T11:56:15;4.90;;;1.80;;
8861;SDS011;4799;50.996;4.754;2023-06-26T12:01:43;3.20;;;1.50;;
8861;SDS011;4799;50.996;4.754;2023-06-26T12:04:13;4.30;;;1.70;;
8861;SDS011;4799;50.996;4.754;2023-06-26T12:06:42;4.37;;;1.70;;
8861;SDS011;4799;50.996;4.754;2023-06-26T12:09:11;2.93;;;1.50;;
8861;SDS011;4799;50.996;4.754;2023-06-26T12:11:39;4.20;;;1.60;;
8861;SDS011;4799;50.996;4.754;2023-06-26T12:14:07;4.77;;;1.73;;
8861;SDS011;4799;50.996;4.754;2023-06-26T12:16:34;3.23;;;1.63;;
8861;SDS011;4799;50.996;4.754;2023-06-26T12:19:01;6.20;;;1.63;;
8861;SDS011;4799;50.996;4.754;2023-06-26T12:21:43;2.93;;;1.40;;
8861;SDS011;4799;50.996;4.754;2023-06-26T12:24:20;2.30;;;1.50;;
8861;SDS011;4799;50.996;4.754;2023-06-26T12:26:48;3.30;;;1.60;;
8861;SDS011;4799;50.996;4.754;2023-06-26T12:29:28;4.53;;;1.53;;
8861;SDS011;4799;50.996;4.754;2023-06-26T12:31:56;2.20;;;1.40;;
8861;SDS011;4799;50.996;4.754;2023-06-26T12:36:59;3.37;;;1.43;;
8861;SDS011;4799;50.996;4.754;2023-06-26T12:39:26;4.27;;;1.40;;
8861;SDS011;4799;50.996;4.754;2023-06-26T12:41:53;5.50;;;1.60;;
8861;SDS011;4799;50.996;4.754;2023-06-26T12:44:20;4.67;;;1.60;;
8861;SDS011;4799;50.996;4.754;2023-06-26T12:46:54;2.37;;;1.57;;
8861;SDS011;4799;50.996;4.754;2023-06-26T12:49:34;2.13;;;1.40;;
8861;SDS011;4799;50.996;4.754;2023-06-26T12:52:01;2.47;;;1.67;;
8861;SDS011;4799;50.996;4.754;2023-06-26T12:54:29;3.30;;;1.77;;
8861;SDS011;4799;50.996;4.754;2023-06-26T12:56:55;3.83;;;1.93;;
8861;SDS011;4799;50.996;4.754;2023-06-26T12:59:21;4.40;;;1.53;;
8861;SDS011;4799;50.996;4.754;2023-06-26T13:01:47;3.40;;;1.43;;
8861;SDS011;4799;50.996;4.754;2023-06-26T13:04:13;3.37;;;1.80;;
8861;SDS011;4799;50.996;4.754;2023-06-26T13:06:39;3.03;;;1.67;;
8861;SDS011;4799;50.996;4.754;2023-06-26T13:09:05;3.70;;;1.50;;
8861;SDS011;4799;50.996;4.754;2023-06-26T13:11:31;3.87;;;1.63;;
8861;SDS011;4799;50.996;4.754;2023-06-26T13:14:01;3.17;;;1.87;;
8861;SDS011;4799;50.996;4.754;2023-06-26T13:16:26;2.17;;;1.53;;
8861;SDS011;4799;50.996;4.754;2023-06-26T13:18:52;2.43;;;1.50;;
8861;SDS011;4799;50.996;4.754;2023-06-26T13:21:18;3.17;;;1.60;;
8861;SDS011;4799;50.996;4.754;2023-06-26T13:23:44;2.13;;;1.70;;
8861;SDS011;4799;50.996;4.754;2023-06-26T13:26:10;3.57;;;1.80;;
8861;SDS011;4799;50.996;4.754;2023-06-26T13:28:36;6.20;;;1.90;;
8861;SDS011;4799;50.996;4.754;2023-06-26T13:31:02;4.22;;;1.90;;
8861;SDS011;4799;50.996;4.754;2023-06-26T13:33:29;2.70;;;1.60;;
8861;SDS011;4799;50.996;4.754;2023-06-26T13:35:55;3.60;;;1.80;;
8861;SDS011;4799;50.996;4.754;2023-06-26T13:38:21;4.70;;;1.90;;
8861;SDS011;4799;50.996;4.754;2023-06-26T13:40:55;3.40;;;1.95;;
8861;SDS011;4799;50.996;4.754;2023-06-26T13:43:26;3.15;;;1.73;;
8861;SDS011;4799;50.996;4.754;2023-06-26T13:45:52;2.83;;;1.60;;
8861;SDS011;4799;50.996;4.754;2023-06-26T13:48:18;3.83;;;1.67;;
8861;SDS011;4799;50.996;4.754;2023-06-26T13:50:45;4.53;;;1.90;;
8861;SDS011;4799;50.996;4.754;2023-06-26T13:53:11;3.10;;;1.50;;
8861;SDS011;4799;50.996;4.754;2023-06-26T13:55:37;3.17;;;1.90;;
8861;SDS011;4799;50.996;4.754;2023-06-26T13:58:04;2.97;;;1.70;;
8861;SDS011;4799;50.996;4.754;2023-06-26T14:00:34;4.13;;;2.00;;
8861;SDS011;4799;50.996;4.754;2023-06-26T14:03:01;3.00;;;1.60;;
8861;SDS011;4799;50.996;4.754;2023-06-26T14:05:35;2.77;;;1.90;;
8861;SDS011;4799;50.996;4.754;2023-06-26T14:08:03;2.22;;;1.60;;
8861;SDS011;4799;50.996;4.754;2023-06-26T14:10:29;6.13;;;1.90;;
8861;SDS011;4799;50.996;4.754;2023-06-26T14:12:55;3.63;;;1.60;;
8861;SDS011;4799;50.996;4.754;2023-06-26T14:15:21;4.90;;;1.80;;
8861;SDS011;4799;50.996;4.754;2023-06-26T14:17:47;2.92;;;1.70;;
8861;SDS011;4799;50.996;4.754;2023-06-26T14:20:15;4.15;;;1.80;;
8861;SDS011;4799;50.996;4.754;2023-06-26T14:22:42;3.60;;;2.00;;
8861;SDS011;4799;50.996;4.754;2023-06-26T14:25:12;4.93;;;1.90;;
8861;SDS011;4799;50.996;4.754;2023-06-26T14:27:38;5.28;;;1.88;;
8861;SDS011;4799;50.996;4.754;2023-06-26T14:30:04;2.67;;;1.58;;
8861;SDS011;4799;50.996;4.754;2023-06-26T14:32:32;3.38;;;1.70;;
8861;SDS011;4799;50.996;4.754;2023-06-26T14:34:58;3.13;;;1.70;;
8861;SDS011;4799;50.996;4.754;2023-06-26T14:37:29;3.33;;;1.80;;
8861;SDS011;4799;50.996;4.754;2023-06-26T14:39:56;3.43;;;1.77;;
8861;SDS011;4799;50.996;4.754;2023-06-26T14:42:22;4.43;;;1.75;;
8861;SDS011;4799;50.996;4.754;2023-06-26T14:44:48;3.65;;;1.90;;
8861;SDS011;4799;50.996;4.754;2023-06-26T14:47:18;4.13;;;2.07;;
8861;SDS011;4799;50.996;4.754;2023-06-26T14:49:44;2.97;;;1.60;;
8861;SDS011;4799;50.996;4.754;2023-06-26T14:52:10;3.90;;;1.93;;
8861;SDS011;4799;50.996;4.754;2023-06-26T14:54:36;4.82;;;1.95;;
8861;SDS011;4799;50.996;4.754;2023-06-26T14:57:02;3.05;;;1.70;;
8861;SDS011;4799;50.996;4.754;2023-06-26T14:59:28;4.28;;;1.80;;
8861;SDS011;4799;50.996;4.754;2023-06-26T15:01:54;2.38;;;1.60;;
8861;SDS011;4799;50.996;4.754;2023-06-26T15:04:20;3.10;;;1.30;;
8861;SDS011;4799;50.996;4.754;2023-06-26T15:06:46;3.00;;;1.67;;
8861;SDS011;4799;50.996;4.754;2023-06-26T15:09:11;6.38;;;2.05;;
8861;SDS011;4799;50.996;4.754;2023-06-26T15:11:37;4.70;;;1.90;;
8861;SDS011;4799;50.996;4.754;2023-06-26T15:14:03;5.55;;;1.77;;
8861;SDS011;4799;50.996;4.754;2023-06-26T15:16:29;5.85;;;2.00;;
8861;SDS011;4799;50.996;4.754;2023-06-26T15:18:54;3.97;;;1.85;;
8861;SDS011;4799;50.996;4.754;2023-06-26T15:21:20;4.68;;;1.80;;
8861;SDS011;4799;50.996;4.754;2023-06-26T15:23:46;2.90;;;1.80;;
8861;SDS011;4799;50.996;4.754;2023-06-26T15:26:12;3.90;;;1.80;;
8861;SDS011;4799;50.996;4.754;2023-06-26T15:28:39;3.45;;;1.85;;
8861;SDS011;4799;50.996;4.754;2023-06-26T15:31:04;3.22;;;1.70;;
8861;SDS011;4799;50.996;4.754;2023-06-26T15:33:30;2.55;;;1.80;;